SANT/TUC METAR and TAF weather

Enter ICAO airport designator
Station Type Date Time Source
SANT METAR 2019/05/25 15:00 UTC NOAA

SANT 251500Z 36005KT 9999 FEW045 SCT100 BKN200 17/07 Q1011


Station Type Date Time Source
SANT Decoded METAR 2019/05/25 15:00 UTC NOAA

Tucuman Aerodrome, Argentina (SANT) 26-51S 065-06W 450M
May 25, 2019 - 11:00 AM EDT / 2019.05.25 1500 UTC
Wind: from the N (360 degrees) at 6 MPH (5 KT):0
Visibility: greater than 7 mile(s):0
Sky conditions: mostly cloudy
Temperature: 62 F (17 C)
Dew Point: 44 F (7 C)
Relative Humidity: 51%
Pressure (altimeter): 29.85 in. Hg (1011 hPa)
ob: SANT 251500Z 36005KT 9999 FEW045 SCT100 BKN200 17/07 Q1011
cycle: 15

Station Type Date Time Source
SANT TAF 2019/05/25 12:13 UTC NOAA

TAF SANT 251100Z 2512/2612 VRB03KT 7000 FEW040 SCT060 TX18/2518Z TN05/2610Z
BECMG 2513/2515 CAVOK
BECMG 2608/2610 5000 BR NSC

Example: see airport list